Time;durP1;ratioP1;P1;durP2;ratioP2;P2;SDS_P1;SDS_P2;PMS_P1;PMS_P2;Temp;Humidity;BMP_temperature;BMP_pressure;BME280_temperature;BME280_humidity;BME280_pressure;Samples;Min_cycle;Max_cycle;Signal;HPM_P1;HPM_P2
2021/03/16 00:01:06;;;;;;;27.13;6.10;;;;;;;;;;5026862;28;20786;-70
2021/03/16 00:03:32;;;;;;;31.08;5.72;;;;;;;;;;5019183;28;20843;-71
2021/03/16 00:05:58;;;;;;;31.33;6.10;;;;;;;;;;5007821;28;20412;-70
2021/03/16 00:08:24;;;;;;;30.77;6.20;;;;;;;;;;5008478;28;20952;-70
2021/03/16 00:10:50;;;;;;;27.83;6.47;;;;;;;;;;5007100;28;20452;-70
2021/03/16 00:13:17;;;;;;;30.40;6.72;;;;;;;;;;5008512;28;20862;-70
2021/03/16 00:15:43;;;;;;;28.15;6.38;;;;;;;;;;5006565;28;20405;-70
2021/03/16 00:18:14;;;;;;;28.50;5.60;;;;;;;;;;4991217;28;20423;-70
2021/03/16 00:20:41;;;;;;;27.00;5.90;;;;;;;;;;5006247;28;20447;-70
2021/03/16 00:23:07;;;;;;;26.60;5.68;;;;;;;;;;5008751;28;20934;-70
2021/03/16 00:25:33;;;;;;;29.58;5.80;;;;;;;;;;5007537;28;20738;-70
2021/03/16 00:27:59;;;;;;;25.27;5.30;;;;;;;;;;5008148;28;21206;-70
2021/03/16 00:30:26;;;;;;;25.10;5.28;;;;;;;;;;5006391;28;20412;-70
2021/03/16 00:32:52;;;;;;;22.33;5.20;;;;;;;;;;5008450;28;20419;-70
2021/03/16 00:35:17;;;;;;;26.02;4.97;;;;;;;;;;5013826;28;20439;-70
2021/03/16 00:37:43;;;;;;;25.95;5.15;;;;;;;;;;5012479;28;20994;-69
2021/03/16 00:40:10;;;;;;;27.87;4.77;;;;;;;;;;4994092;28;21294;-70
2021/03/16 00:42:36;;;;;;;22.92;4.95;;;;;;;;;;4995532;28;20397;-70
2021/03/16 00:45:02;;;;;;;19.13;4.30;;;;;;;;;;5010218;28;20397;-70
2021/03/16 00:47:28;;;;;;;23.33;5.10;;;;;;;;;;5012293;28;20838;-70
2021/03/16 00:49:54;;;;;;;22.02;4.50;;;;;;;;;;5011260;28;20476;-70
2021/03/16 00:52:20;;;;;;;21.35;4.57;;;;;;;;;;5011455;28;20388;-70
2021/03/16 00:54:46;;;;;;;23.37;4.80;;;;;;;;;;5010357;28;20396;-70
2021/03/16 00:57:12;;;;;;;19.60;4.28;;;;;;;;;;4992695;28;20394;-70
2021/03/16 00:59:38;;;;;;;21.50;5.15;;;;;;;;;;5010684;28;20405;-70
2021/03/16 01:02:04;;;;;;;23.30;4.47;;;;;;;;;;5009107;28;20389;-70
2021/03/16 01:04:30;;;;;;;22.23;4.55;;;;;;;;;;5010929;28;20486;-70
2021/03/16 01:06:56;;;;;;;16.88;3.92;;;;;;;;;;5010859;28;20396;-70
2021/03/16 01:09:22;;;;;;;19.60;4.07;;;;;;;;;;5011989;28;20436;-70
2021/03/16 01:11:48;;;;;;;18.42;4.03;;;;;;;;;;5009607;28;20401;-70
2021/03/16 01:14:14;;;;;;;20.05;4.65;;;;;;;;;;5011687;28;20369;-70
2021/03/16 01:16:40;;;;;;;22.20;4.70;;;;;;;;;;5010263;28;20424;-70
2021/03/16 01:19:06;;;;;;;22.60;4.35;;;;;;;;;;5011322;28;20455;-70
2021/03/16 01:21:32;;;;;;;22.15;4.50;;;;;;;;;;5009640;28;20878;-70
2021/03/16 01:23:58;;;;;;;20.08;4.38;;;;;;;;;;5011854;28;20377;-70
2021/03/16 01:26:24;;;;;;;22.17;4.22;;;;;;;;;;5009268;28;20408;-70
2021/03/16 01:28:50;;;;;;;19.98;4.80;;;;;;;;;;5009798;28;20405;-70
2021/03/16 01:31:15;;;;;;;22.13;4.90;;;;;;;;;;5009981;28;20435;-70
2021/03/16 01:33:41;;;;;;;20.30;4.38;;;;;;;;;;5015294;28;20385;-70
2021/03/16 01:36:07;;;;;;;26.20;5.20;;;;;;;;;;5010103;28;20499;-70
2021/03/16 01:38:34;;;;;;;28.02;5.15;;;;;;;;;;5010220;28;20432;-70
2021/03/16 01:41:00;;;;;;;28.58;5.28;;;;;;;;;;5010176;28;20415;-70
2021/03/16 01:43:28;;;;;;;27.43;5.87;;;;;;;;;;5011166;28;20388;-70
2021/03/16 01:45:54;;;;;;;24.58;5.30;;;;;;;;;;5009388;28;20978;-70
2021/03/16 01:48:22;;;;;;;30.20;5.33;;;;;;;;;;5010480;28;20405;-70
2021/03/16 01:50:48;;;;;;;22.20;4.63;;;;;;;;;;5010162;28;20392;-70
2021/03/16 01:53:14;;;;;;;24.37;5.70;;;;;;;;;;5011049;28;20388;-70
2021/03/16 01:55:41;;;;;;;22.38;5.00;;;;;;;;;;5010452;28;20412;-71
2021/03/16 01:58:07;;;;;;;22.87;4.80;;;;;;;;;;5009844;28;20439;-70
2021/03/16 02:00:41;;;;;;;22.20;4.93;;;;;;;;;;5010405;28;20411;-71
2021/03/16 02:03:11;;;;;;;24.93;5.20;;;;;;;;;;5016751;28;20516;-70
2021/03/16 02:05:38;;;;;;;23.98;4.97;;;;;;;;;;5030522;28;20407;-70
2021/03/16 02:08:10;;;;;;;25.73;5.95;;;;;;;;;;5029306;28;20399;-70
2021/03/16 02:10:55;;;;;;;26.25;4.95;;;;;;;;;;5030112;28;20403;-71
2021/03/16 02:13:24;;;;;;;23.50;4.50;;;;;;;;;;5028412;28;20824;-70
2021/03/16 02:15:53;;;;;;;19.60;4.88;;;;;;;;;;5030233;28;20403;-70
2021/03/16 02:18:22;;;;;;;22.83;5.00;;;;;;;;;;5028713;28;20741;-70
2021/03/16 02:20:48;;;;;;;19.90;4.38;;;;;;;;;;5029523;28;20869;-70
2021/03/16 02:23:19;;;;;;;24.70;5.20;;;;;;;;;;5029567;28;20887;-70
2021/03/16 02:26:17;;;;;;;22.20;5.18;;;;;;;;;;5028946;28;20491;-71
2021/03/16 02:28:55;;;;;;;21.48;4.65;;;;;;;;;;4979853;28;20418;-70
2021/03/16 02:31:21;;;;;;;24.83;4.88;;;;;;;;;;5028547;28;20394;-70
2021/03/16 02:33:48;;;;;;;25.25;4.65;;;;;;;;;;5031657;28;20914;-70
2021/03/16 02:36:14;;;;;;;25.15;5.32;;;;;;;;;;5028210;28;20398;-70
2021/03/16 02:38:43;;;;;;;20.13;4.47;;;;;;;;;;5028625;28;20430;-70
2021/03/16 02:41:10;;;;;;;15.70;3.70;;;;;;;;;;5029294;28;20537;-69
2021/03/16 02:43:36;;;;;;;23.27;4.43;;;;;;;;;;5029201;28;20960;-71
2021/03/16 02:46:06;;;;;;;19.48;4.55;;;;;;;;;;5029928;28;20380;-70
2021/03/16 02:48:32;;;;;;;18.63;4.25;;;;;;;;;;5028199;28;20753;-70
2021/03/16 02:50:59;;;;;;;20.48;4.03;;;;;;;;;;5031381;28;21088;-70
2021/03/16 02:53:25;;;;;;;17.88;4.35;;;;;;;;;;5031168;28;20409;-70
2021/03/16 02:55:53;;;;;;;22.80;4.13;;;;;;;;;;5029437;28;20379;-70
2021/03/16 02:58:20;;;;;;;16.42;4.10;;;;;;;;;;5028317;28;20427;-70
2021/03/16 03:00:46;;;;;;;19.38;3.97;;;;;;;;;;5032890;28;20454;-70
2021/03/16 03:03:13;;;;;;;22.77;4.30;;;;;;;;;;5030005;28;20421;-71
2021/03/16 03:05:39;;;;;;;16.13;3.65;;;;;;;;;;5029628;28;21090;-70
2021/03/16 03:08:09;;;;;;;21.05;4.15;;;;;;;;;;5028450;28;20406;-70
2021/03/16 03:10:35;;;;;;;17.83;3.95;;;;;;;;;;5028900;28;20402;-69
2021/03/16 03:13:01;;;;;;;20.10;4.10;;;;;;;;;;5028311;28;20460;-70
2021/03/16 03:15:27;;;;;;;20.25;4.03;;;;;;;;;;5029247;28;20375;-69
2021/03/16 03:17:53;;;;;;;16.27;3.80;;;;;;;;;;5027120;28;20423;-70
2021/03/16 03:20:19;;;;;;;20.17;4.28;;;;;;;;;;5028864;28;20458;-70
2021/03/16 03:22:45;;;;;;;24.13;4.43;;;;;;;;;;5030910;28;20402;-70
2021/03/16 03:25:17;;;;;;;17.53;3.70;;;;;;;;;;5029563;28;20394;-70
2021/03/16 03:27:45;;;;;;;17.52;3.90;;;;;;;;;;5027493;28;20469;-71
2021/03/16 03:30:18;;;;;;;20.60;4.28;;;;;;;;;;5029215;28;20386;-70
2021/03/16 03:32:45;;;;;;;21.80;4.32;;;;;;;;;;5027247;28;20868;-70
2021/03/16 03:35:11;;;;;;;17.35;4.07;;;;;;;;;;5028644;28;20395;-70
2021/03/16 03:37:37;;;;;;;18.02;3.90;;;;;;;;;;5026853;28;20403;-70
2021/03/16 03:40:07;;;;;;;18.33;4.10;;;;;;;;;;5028261;28;20444;-70
2021/03/16 03:42:33;;;;;;;29.20;5.47;;;;;;;;;;5028100;28;20922;-70
2021/03/16 03:45:01;;;;;;;25.52;5.00;;;;;;;;;;5031007;28;20375;-70
2021/03/16 03:47:28;;;;;;;20.95;4.15;;;;;;;;;;5029811;28;20482;-70
2021/03/16 03:49:54;;;;;;;20.95;4.80;;;;;;;;;;5029553;28;20996;-70
2021/03/16 03:52:20;;;;;;;21.70;5.18;;;;;;;;;;5010339;28;20406;-70
2021/03/16 03:54:47;;;;;;;24.52;4.65;;;;;;;;;;5029978;28;20405;-70
2021/03/16 03:57:14;;;;;;;26.00;4.93;;;;;;;;;;5028021;28;20375;-70
2021/03/16 03:59:44;;;;;;;19.05;4.60;;;;;;;;;;5027602;28;20737;-70
2021/03/16 04:02:10;;;;;;;23.23;4.95;;;;;;;;;;5028039;28;20403;-70
2021/03/16 04:04:38;;;;;;;25.30;4.82;;;;;;;;;;5024931;28;20418;-70
2021/03/16 04:07:04;;;;;;;23.08;4.97;;;;;;;;;;5028725;28;20410;-70
2021/03/16 04:09:31;;;;;;;23.27;4.72;;;;;;;;;;5025884;28;20410;-70
2021/03/16 04:11:57;;;;;;;20.17;4.60;;;;;;;;;;5027861;28;20409;-70
2021/03/16 04:14:23;;;;;;;26.27;4.93;;;;;;;;;;5027003;28;20403;-70
2021/03/16 04:16:50;;;;;;;20.20;5.07;;;;;;;;;;5027628;28;20857;-70
2021/03/16 04:19:16;;;;;;;24.70;4.93;;;;;;;;;;5026830;28;20423;-70
2021/03/16 04:21:42;;;;;;;21.35;4.80;;;;;;;;;;5028247;28;20405;-70
2021/03/16 04:24:09;;;;;;;23.50;4.97;;;;;;;;;;5027461;28;21211;-70
2021/03/16 04:26:35;;;;;;;23.42;4.90;;;;;;;;;;5030304;28;20391;-71
2021/03/16 04:29:01;;;;;;;21.50;4.90;;;;;;;;;;5027984;28;20506;-70
2021/03/16 04:31:27;;;;;;;23.65;5.65;;;;;;;;;;5028010;28;20457;-70
2021/03/16 04:33:53;;;;;;;25.42;5.05;;;;;;;;;;5027360;28;20461;-70
2021/03/16 04:36:19;;;;;;;21.27;4.95;;;;;;;;;;5026144;28;20395;-70
2021/03/16 04:38:45;;;;;;;28.70;5.35;;;;;;;;;;5029322;28;20437;-70
2021/03/16 04:41:11;;;;;;;25.52;5.72;;;;;;;;;;5028265;28;20832;-70
2021/03/16 04:43:41;;;;;;;22.15;4.80;;;;;;;;;;5026836;28;20438;-70
2021/03/16 04:46:07;;;;;;;24.40;5.05;;;;;;;;;;5027512;28;20414;-70
2021/03/16 04:48:33;;;;;;;24.00;4.85;;;;;;;;;;5026629;28;20393;-70
2021/03/16 04:50:59;;;;;;;28.87;5.63;;;;;;;;;;5028374;28;20429;-69
2021/03/16 04:53:25;;;;;;;22.17;4.88;;;;;;;;;;5027308;28;20398;-70
2021/03/16 04:55:51;;;;;;;25.27;4.95;;;;;;;;;;5027646;28;20830;-70
2021/03/16 04:58:17;;;;;;;28.58;5.28;;;;;;;;;;5026209;28;20419;-70
2021/03/16 05:00:43;;;;;;;28.95;5.38;;;;;;;;;;5027736;28;20410;-70
2021/03/16 05:03:09;;;;;;;27.13;5.13;;;;;;;;;;5028740;28;20418;-70
2021/03/16 05:05:35;;;;;;;24.88;4.68;;;;;;;;;;5028284;28;20407;-70
2021/03/16 05:08:00;;;;;;;24.02;5.13;;;;;;;;;;5026036;28;20428;-69
2021/03/16 05:10:26;;;;;;;26.60;5.18;;;;;;;;;;5026834;28;20395;-70
2021/03/16 05:12:52;;;;;;;23.30;4.93;;;;;;;;;;5031575;28;20387;-70
2021/03/16 05:15:18;;;;;;;22.35;4.88;;;;;;;;;;5026153;28;20446;-70
2021/03/16 05:17:44;;;;;;;21.00;4.50;;;;;;;;;;5027161;28;20428;-70
2021/03/16 05:20:11;;;;;;;31.13;5.72;;;;;;;;;;5027992;28;20698;-70
2021/03/16 05:22:37;;;;;;;26.17;5.20;;;;;;;;;;5030147;28;20407;-70
2021/03/16 05:25:05;;;;;;;26.35;5.90;;;;;;;;;;5030318;28;20402;-71
2021/03/16 05:27:31;;;;;;;28.13;5.20;;;;;;;;;;5029925;28;20646;-70
2021/03/16 05:29:57;;;;;;;22.70;4.90;;;;;;;;;;5030385;28;20398;-70
2021/03/16 05:32:23;;;;;;;28.05;5.65;;;;;;;;;;5030588;28;20407;-70
2021/03/16 05:34:49;;;;;;;26.53;5.30;;;;;;;;;;5040421;28;20409;-69
2021/03/16 05:37:15;;;;;;;22.75;4.85;;;;;;;;;;5030717;28;20407;-70
2021/03/16 05:39:41;;;;;;;27.80;5.45;;;;;;;;;;5028896;28;20414;-71
2021/03/16 05:42:07;;;;;;;23.13;4.75;;;;;;;;;;5029732;28;20411;-70
2021/03/16 05:44:33;;;;;;;21.73;5.03;;;;;;;;;;5029888;28;20414;-70
2021/03/16 05:47:01;;;;;;;23.42;4.72;;;;;;;;;;5034284;28;20378;-70
2021/03/16 05:49:27;;;;;;;22.52;4.97;;;;;;;;;;5030678;28;20486;-70
2021/03/16 05:51:53;;;;;;;21.42;5.00;;;;;;;;;;5030018;28;20452;-70
2021/03/16 05:54:19;;;;;;;28.93;5.70;;;;;;;;;;5029886;28;20419;-70
2021/03/16 05:56:46;;;;;;;24.23;5.25;;;;;;;;;;5030479;28;20398;-70
2021/03/16 05:59:11;;;;;;;29.57;5.43;;;;;;;;;;5031949;28;21256;-70
2021/03/16 06:01:37;;;;;;;24.80;5.05;;;;;;;;;;5034795;28;20434;-70
2021/03/16 06:04:04;;;;;;;27.02;6.00;;;;;;;;;;5019721;28;20855;-70
2021/03/16 06:06:33;;;;;;;25.40;4.95;;;;;;;;;;5011088;28;20412;-70
2021/03/16 06:08:59;;;;;;;25.70;5.72;;;;;;;;;;5010166;28;20389;-70
2021/03/16 06:11:25;;;;;;;29.15;5.53;;;;;;;;;;5008461;28;20448;-70
2021/03/16 06:13:53;;;;;;;25.60;5.70;;;;;;;;;;5010319;28;20420;-69
2021/03/16 06:16:19;;;;;;;23.70;5.65;;;;;;;;;;5012605;28;20401;-70
2021/03/16 06:18:46;;;;;;;22.08;5.15;;;;;;;;;;5010208;28;20427;-70
2021/03/16 06:21:17;;;;;;;23.08;4.93;;;;;;;;;;5007889;28;20397;-70
2021/03/16 06:23:50;;;;;;;23.20;5.18;;;;;;;;;;5012704;28;20381;-70
2021/03/16 06:26:16;;;;;;;28.05;6.05;;;;;;;;;;5008904;28;20938;-70
2021/03/16 06:28:42;;;;;;;25.10;5.53;;;;;;;;;;5009993;28;20531;-70
2021/03/16 06:31:08;;;;;;;24.48;5.55;;;;;;;;;;5007148;28;20408;-70
2021/03/16 06:33:35;;;;;;;27.15;5.82;;;;;;;;;;5009447;28;20396;-70
2021/03/16 06:36:02;;;;;;;25.10;4.75;;;;;;;;;;5006537;28;20875;-71
2021/03/16 06:38:28;;;;;;;24.95;5.55;;;;;;;;;;4992108;28;20741;-69
2021/03/16 06:40:54;;;;;;;25.08;5.13;;;;;;;;;;5008575;28;20900;-70
2021/03/16 06:43:24;;;;;;;27.70;5.43;;;;;;;;;;4999490;28;20771;-70
2021/03/16 06:45:51;;;;;;;27.40;5.97;;;;;;;;;;5009510;28;20414;-70
2021/03/16 06:48:23;;;;;;;23.50;5.22;;;;;;;;;;5008782;28;20423;-70
2021/03/16 06:50:50;;;;;;;25.17;5.68;;;;;;;;;;5008358;28;20486;-70
2021/03/16 06:53:22;;;;;;;28.85;5.20;;;;;;;;;;5027349;28;20375;-70
2021/03/16 06:55:52;;;;;;;25.00;5.18;;;;;;;;;;5017028;28;20431;-70
2021/03/16 06:58:22;;;;;;;22.98;5.20;;;;;;;;;;5009414;28;21163;-69
2021/03/16 07:00:48;;;;;;;23.83;4.45;;;;;;;;;;5011803;28;20410;-70
2021/03/16 07:03:14;;;;;;;22.85;4.82;;;;;;;;;;5012872;28;20411;-70
2021/03/16 07:05:41;;;;;;;14.68;3.38;;;;;;;;;;5024160;28;20410;-71
2021/03/16 07:08:07;;;;;;;13.88;3.22;;;;;;;;;;5028425;28;20399;-70
2021/03/16 07:10:37;;;;;;;14.77;3.22;;;;;;;;;;5025906;28;21049;-70
2021/03/16 07:13:04;;;;;;;11.35;2.72;;;;;;;;;;5027532;28;20395;-69
2021/03/16 07:15:31;;;;;;;10.50;2.58;;;;;;;;;;5001226;28;20391;-70
2021/03/16 07:17:58;;;;;;;15.93;3.00;;;;;;;;;;5024898;28;20433;-70
2021/03/16 07:20:28;;;;;;;12.27;2.88;;;;;;;;;;5025635;28;20397;-70
2021/03/16 07:22:56;;;;;;;12.82;2.92;;;;;;;;;;5025288;28;20395;-69
2021/03/16 07:25:22;;;;;;;12.02;3.22;;;;;;;;;;5025848;28;20390;-70
2021/03/16 07:27:49;;;;;;;12.83;2.77;;;;;;;;;;5014523;28;20381;-70
2021/03/16 07:30:16;;;;;;;12.82;2.88;;;;;;;;;;5026212;28;20391;-70
2021/03/16 07:32:42;;;;;;;14.32;2.72;;;;;;;;;;5028901;28;20437;-70
2021/03/16 07:35:08;;;;;;;13.13;3.20;;;;;;;;;;5026419;28;20395;-70
2021/03/16 07:37:35;;;;;;;15.70;3.25;;;;;;;;;;5025573;28;20399;-70
2021/03/16 07:40:02;;;;;;;12.48;3.20;;;;;;;;;;5015852;28;20498;-70
2021/03/16 07:42:28;;;;;;;20.02;4.00;;;;;;;;;;5024851;28;20466;-70
2021/03/16 07:44:55;;;;;;;18.98;3.97;;;;;;;;;;5019839;28;20406;-71
2021/03/16 07:47:21;;;;;;;19.10;4.88;;;;;;;;;;5026142;28;20395;-70
2021/03/16 07:49:47;;;;;;;23.10;4.18;;;;;;;;;;5005394;28;20398;-70
2021/03/16 07:52:17;;;;;;;21.38;4.30;;;;;;;;;;5021527;28;20399;-70
2021/03/16 07:54:46;;;;;;;24.60;5.43;;;;;;;;;;5027223;28;20914;-70
2021/03/16 07:57:12;;;;;;;22.20;4.15;;;;;;;;;;5023564;28;20485;-70
2021/03/16 07:59:38;;;;;;;25.63;5.87;;;;;;;;;;5003238;28;20516;-70
2021/03/16 08:02:04;;;;;;;26.85;5.53;;;;;;;;;;5023181;28;20422;-70
2021/03/16 08:04:33;;;;;;;26.03;5.60;;;;;;;;;;5023972;28;20478;-71
2021/03/16 08:07:00;;;;;;;22.25;5.10;;;;;;;;;;5023422;28;20826;-74
2021/03/16 08:09:26;;;;;;;25.73;5.10;;;;;;;;;;5026258;28;20819;-71
2021/03/16 08:11:52;;;;;;;27.17;5.35;;;;;;;;;;5024454;28;20402;-71
2021/03/16 08:14:29;;;;;;;24.75;5.80;;;;;;;;;;5024289;28;20391;-71
2021/03/16 08:16:55;;;;;;;26.40;5.50;;;;;;;;;;5021523;28;20422;-71
2021/03/16 08:19:23;;;;;;;22.55;5.03;;;;;;;;;;5009726;28;20510;-71
2021/03/16 08:21:56;;;;;;;32.33;5.82;;;;;;;;;;5014052;28;20412;-71
2021/03/16 08:24:22;;;;;;;29.75;5.57;;;;;;;;;;5008342;28;20905;-71
2021/03/16 08:26:50;;;;;;;33.08;5.88;;;;;;;;;;5025876;28;20871;-71
2021/03/16 08:29:16;;;;;;;23.15;5.28;;;;;;;;;;5027109;28;20484;-71
2021/03/16 08:31:42;;;;;;;23.15;5.45;;;;;;;;;;5016914;28;20399;-70
2021/03/16 08:34:09;;;;;;;25.67;5.03;;;;;;;;;;5028235;28;20415;-71
2021/03/16 08:36:39;;;;;;;21.92;4.97;;;;;;;;;;5024238;28;21179;-71
2021/03/16 08:39:05;;;;;;;25.45;4.97;;;;;;;;;;5026253;28;20426;-72
2021/03/16 08:41:31;;;;;;;25.13;5.10;;;;;;;;;;5028928;28;20742;-71
2021/03/16 08:43:58;;;;;;;28.33;5.28;;;;;;;;;;5027390;28;20493;-73
2021/03/16 08:46:34;;;;;;;21.95;4.80;;;;;;;;;;5029307;28;20418;-72
2021/03/16 08:49:00;;;;;;;24.02;4.97;;;;;;;;;;5022234;28;20502;-71
2021/03/16 08:51:27;;;;;;;18.65;4.85;;;;;;;;;;5028346;28;20434;-71
2021/03/16 08:53:53;;;;;;;21.30;4.28;;;;;;;;;;5021221;28;20413;-73
2021/03/16 08:56:23;;;;;;;18.33;3.88;;;;;;;;;;5034976;28;21057;-72
2021/03/16 08:58:49;;;;;;;18.55;3.90;;;;;;;;;;5033391;28;20427;-71
2021/03/16 09:01:25;;;;;;;19.15;4.05;;;;;;;;;;5033065;28;20393;-71
2021/03/16 09:03:52;;;;;;;22.88;4.15;;;;;;;;;;5028541;28;20422;-71
2021/03/16 09:06:22;;;;;;;21.67;4.35;;;;;;;;;;5036112;28;20810;-71
2021/03/16 09:08:49;;;;;;;15.23;3.75;;;;;;;;;;5033839;28;20395;-71
2021/03/16 09:11:32;;;;;;;14.85;3.22;;;;;;;;;;5030967;28;20371;-71
2021/03/16 09:14:15;;;;;;;13.93;3.03;;;;;;;;;;5030880;28;20487;-71
2021/03/16 09:16:46;;;;;;;10.97;2.30;;;;;;;;;;5033223;28;20406;-71
2021/03/16 09:19:13;;;;;;;11.98;2.45;;;;;;;;;;5035489;28;20433;-70
2021/03/16 09:22:01;;;;;;;9.10;2.33;;;;;;;;;;5030836;28;20912;-72
2021/03/16 09:24:29;;;;;;;11.85;2.42;;;;;;;;;;5035420;28;20447;-70
2021/03/16 09:27:08;;;;;;;10.87;2.57;;;;;;;;;;5040823;28;20407;-71
2021/03/16 09:29:36;;;;;;;12.93;3.10;;;;;;;;;;5025923;28;20490;-71
2021/03/16 09:32:04;;;;;;;11.35;2.15;;;;;;;;;;5028382;28;20403;-72
2021/03/16 09:34:31;;;;;;;8.85;2.17;;;;;;;;;;5029539;28;20391;-72
2021/03/16 09:37:07;;;;;;;11.15;2.47;;;;;;;;;;5025346;28;20383;-72
2021/03/16 09:39:33;;;;;;;13.27;3.10;;;;;;;;;;5030400;28;20422;-72
2021/03/16 09:42:00;;;;;;;14.90;3.05;;;;;;;;;;5030497;28;20407;-73
2021/03/16 09:44:34;;;;;;;16.05;3.45;;;;;;;;;;5030296;28;21030;-71
2021/03/16 09:47:00;;;;;;;17.33;3.42;;;;;;;;;;5030610;28;20390;-72
2021/03/16 09:49:27;;;;;;;20.53;4.60;;;;;;;;;;5030461;28;20932;-73
2021/03/16 09:51:53;;;;;;;16.27;3.75;;;;;;;;;;5030615;28;20387;-74
2021/03/16 09:54:19;;;;;;;21.45;4.22;;;;;;;;;;5030554;28;20398;-71
2021/03/16 09:56:50;;;;;;;19.90;3.90;;;;;;;;;;5030100;28;20406;-70
2021/03/16 09:59:16;;;;;;;18.95;3.80;;;;;;;;;;5030545;28;20419;-71
2021/03/16 10:01:44;;;;;;;17.73;4.03;;;;;;;;;;5027485;28;22164;-72
2021/03/16 10:04:14;;;;;;;18.58;3.97;;;;;;;;;;5025852;28;20419;-70
2021/03/16 10:06:42;;;;;;;20.73;3.92;;;;;;;;;;5025477;28;20486;-70
2021/03/16 10:09:15;;;;;;;16.92;3.72;;;;;;;;;;5027756;28;20417;-72
2021/03/16 10:11:41;;;;;;;17.80;4.50;;;;;;;;;;5026884;28;20400;-70
2021/03/16 10:14:07;;;;;;;20.02;4.55;;;;;;;;;;5027885;28;20391;-70
2021/03/16 10:16:33;;;;;;;16.30;4.07;;;;;;;;;;5033100;28;21114;-71
2021/03/16 10:18:59;;;;;;;19.88;4.40;;;;;;;;;;5025596;28;20748;-70
2021/03/16 10:21:29;;;;;;;20.70;4.05;;;;;;;;;;5024914;28;20434;-71
2021/03/16 10:23:58;;;;;;;22.00;4.67;;;;;;;;;;5029281;28;20699;-71
2021/03/16 10:26:25;;;;;;;20.42;4.22;;;;;;;;;;5027702;28;20431;-70
2021/03/16 10:28:50;;;;;;;17.15;3.70;;;;;;;;;;5025395;28;20580;-71
2021/03/16 10:31:17;;;;;;;13.63;3.50;;;;;;;;;;5030838;28;20900;-72
2021/03/16 10:33:44;;;;;;;17.15;3.50;;;;;;;;;;5012787;28;20396;-71
2021/03/16 10:36:10;;;;;;;20.35;3.95;;;;;;;;;;5028824;28;20410;-72
2021/03/16 10:38:36;;;;;;;15.57;3.85;;;;;;;;;;5023773;28;20718;-71
2021/03/16 10:41:02;;;;;;;18.90;3.45;;;;;;;;;;5029495;28;21136;-71
2021/03/16 10:43:28;;;;;;;21.23;3.90;;;;;;;;;;5029783;28;20367;-71
2021/03/16 10:45:55;;;;;;;17.03;3.40;;;;;;;;;;5027930;28;20383;-71
2021/03/16 10:48:22;;;;;;;16.38;3.17;;;;;;;;;;5028851;28;20830;-72
2021/03/16 10:50:48;;;;;;;13.65;3.83;;;;;;;;;;5028078;28;20761;-72
2021/03/16 10:53:17;;;;;;;13.65;3.17;;;;;;;;;;5027358;28;20411;-72
2021/03/16 10:55:43;;;;;;;17.00;4.18;;;;;;;;;;5027160;28;20422;-70
2021/03/16 10:58:09;;;;;;;19.08;3.90;;;;;;;;;;5024939;28;21113;-70
2021/03/16 11:00:36;;;;;;;18.33;4.13;;;;;;;;;;5027482;28;20399;-70
2021/03/16 11:03:03;;;;;;;14.98;3.67;;;;;;;;;;5027974;28;20433;-71
2021/03/16 11:05:29;;;;;;;19.67;3.80;;;;;;;;;;5030472;28;20422;-71
2021/03/16 11:07:55;;;;;;;19.63;4.10;;;;;;;;;;5033577;28;20484;-71
2021/03/16 11:10:21;;;;;;;19.00;4.32;;;;;;;;;;5023859;28;20397;-74
2021/03/16 11:12:47;;;;;;;20.10;4.15;;;;;;;;;;5003676;28;20823;-74
2021/03/16 11:15:13;;;;;;;19.88;4.22;;;;;;;;;;5024466;28;20802;-73
2021/03/16 11:17:39;;;;;;;22.92;3.65;;;;;;;;;;5024785;28;20425;-73
2021/03/16 11:20:05;;;;;;;20.57;4.80;;;;;;;;;;5024596;28;20464;-72
2021/03/16 11:22:31;;;;;;;18.05;3.88;;;;;;;;;;5024310;28;20416;-71
2021/03/16 11:24:57;;;;;;;22.23;4.40;;;;;;;;;;5026514;28;20387;-74
2021/03/16 11:27:23;;;;;;;16.42;3.83;;;;;;;;;;5022699;28;20853;-72
2021/03/16 11:29:49;;;;;;;19.00;3.65;;;;;;;;;;5023084;28;20403;-73
2021/03/16 11:32:15;;;;;;;19.37;3.37;;;;;;;;;;5019001;28;20385;-72
2021/03/16 11:34:41;;;;;;;14.30;3.38;;;;;;;;;;5021845;28;20398;-73
2021/03/16 11:37:07;;;;;;;16.95;3.47;;;;;;;;;;5026959;28;20458;-73
2021/03/16 11:39:33;;;;;;;12.57;3.47;;;;;;;;;;5026082;28;20742;-74
2021/03/16 11:42:00;;;;;;;15.23;3.60;;;;;;;;;;5027694;28;20379;-71
2021/03/16 11:44:26;;;;;;;16.98;3.28;;;;;;;;;;5028345;28;20415;-73
2021/03/16 11:46:52;;;;;;;20.67;3.60;;;;;;;;;;5028087;28;20493;-73
2021/03/16 11:49:18;;;;;;;17.52;3.38;;;;;;;;;;5028746;28;20395;-71
2021/03/16 11:51:44;;;;;;;14.68;3.38;;;;;;;;;;5027993;28;20900;-72
2021/03/16 11:54:10;;;;;;;15.67;3.10;;;;;;;;;;5028439;28;20630;-72
2021/03/16 11:56:36;;;;;;;11.93;2.92;;;;;;;;;;5027381;28;21016;-70
2021/03/16 11:59:02;;;;;;;15.98;3.00;;;;;;;;;;5025985;28;20427;-70
2021/03/16 12:01:28;;;;;;;13.10;3.47;;;;;;;;;;5028453;28;20445;-71
2021/03/16 12:03:54;;;;;;;17.30;3.40;;;;;;;;;;5027872;28;20478;-72
2021/03/16 12:06:20;;;;;;;16.98;3.70;;;;;;;;;;5027208;28;20379;-71
2021/03/16 12:08:46;;;;;;;13.25;3.15;;;;;;;;;;5027982;28;20885;-70
2021/03/16 12:11:12;;;;;;;15.63;3.53;;;;;;;;;;5026157;28;21128;-70
2021/03/16 12:13:38;;;;;;;14.82;2.95;;;;;;;;;;5028481;28;20407;-71
2021/03/16 12:16:04;;;;;;;13.52;3.20;;;;;;;;;;5028230;28;20379;-70
2021/03/16 12:18:30;;;;;;;14.50;3.45;;;;;;;;;;5014068;28;20417;-70
2021/03/16 12:20:57;;;;;;;18.15;3.35;;;;;;;;;;5024458;28;20395;-71
2021/03/16 12:23:25;;;;;;;15.27;3.30;;;;;;;;;;5028918;28;20442;-71
2021/03/16 12:25:53;;;;;;;14.30;2.80;;;;;;;;;;5032565;28;20392;-71
2021/03/16 12:28:19;;;;;;;12.68;3.13;;;;;;;;;;5027421;28;20395;-70
2021/03/16 12:30:45;;;;;;;14.63;3.05;;;;;;;;;;5030990;28;20378;-71
2021/03/16 12:33:11;;;;;;;11.63;2.78;;;;;;;;;;5032431;28;20411;-71
2021/03/16 12:35:37;;;;;;;14.10;3.05;;;;;;;;;;5032041;28;20441;-70
2021/03/16 12:38:03;;;;;;;11.65;2.80;;;;;;;;;;5031362;28;20399;-70
2021/03/16 12:40:29;;;;;;;11.70;2.72;;;;;;;;;;5031026;28;20772;-71
2021/03/16 12:42:55;;;;;;;13.30;2.95;;;;;;;;;;5032062;28;20509;-71
2021/03/16 12:45:22;;;;;;;12.82;2.72;;;;;;;;;;5031035;28;20410;-71
2021/03/16 12:47:49;;;;;;;11.40;2.53;;;;;;;;;;5026541;28;20875;-70
2021/03/16 12:50:15;;;;;;;13.27;2.70;;;;;;;;;;5024678;28;20402;-71
2021/03/16 12:52:41;;;;;;;13.05;3.00;;;;;;;;;;5030045;28;20429;-71
2021/03/16 12:55:07;;;;;;;14.40;2.87;;;;;;;;;;5029053;28;20391;-71
2021/03/16 12:57:33;;;;;;;10.63;2.80;;;;;;;;;;5027446;28;20501;-70
2021/03/16 12:59:59;;;;;;;13.45;2.88;;;;;;;;;;5033903;28;20883;-71
2021/03/16 13:02:26;;;;;;;14.38;3.13;;;;;;;;;;5035563;28;20713;-70
2021/03/16 13:04:52;;;;;;;14.25;3.15;;;;;;;;;;5040132;28;20411;-71
2021/03/16 13:07:17;;;;;;;12.25;2.72;;;;;;;;;;5030911;28;20381;-71
2021/03/16 13:09:43;;;;;;;12.20;2.63;;;;;;;;;;5036313;28;20479;-71
2021/03/16 13:12:09;;;;;;;12.07;2.40;;;;;;;;;;5026433;28;20399;-71
2021/03/16 13:14:35;;;;;;;8.70;2.10;;;;;;;;;;5027450;28;20403;-72
2021/03/16 13:17:01;;;;;;;10.75;2.40;;;;;;;;;;5030332;28;20607;-72
2021/03/16 13:19:27;;;;;;;8.47;2.13;;;;;;;;;;5027817;28;20441;-71
2021/03/16 13:21:53;;;;;;;13.07;2.70;;;;;;;;;;5028272;28;20394;-71
2021/03/16 13:24:19;;;;;;;9.38;2.20;;;;;;;;;;5031356;28;20472;-70
2021/03/16 13:26:45;;;;;;;9.87;2.07;;;;;;;;;;5028562;28;20467;-71
2021/03/16 13:29:11;;;;;;;7.72;1.90;;;;;;;;;;5029981;28;20399;-71
2021/03/16 13:31:37;;;;;;;9.70;2.33;;;;;;;;;;5031292;28;20837;-70
2021/03/16 13:34:03;;;;;;;12.50;2.30;;;;;;;;;;5031002;28;20379;-72
2021/03/16 13:36:29;;;;;;;12.55;2.53;;;;;;;;;;5031425;28;20394;-71
2021/03/16 13:38:55;;;;;;;12.77;2.50;;;;;;;;;;5031302;28;20410;-73
2021/03/16 13:41:21;;;;;;;8.77;2.50;;;;;;;;;;5030837;28;20375;-71
2021/03/16 13:43:47;;;;;;;12.50;2.53;;;;;;;;;;5030523;28;20405;-73
2021/03/16 13:46:13;;;;;;;8.97;2.10;;;;;;;;;;5030661;28;20387;-73
2021/03/16 13:48:39;;;;;;;9.73;2.05;;;;;;;;;;5030953;28;20390;-73
2021/03/16 13:51:05;;;;;;;7.28;1.67;;;;;;;;;;5030537;28;20391;-73
2021/03/16 13:53:31;;;;;;;9.67;1.70;;;;;;;;;;5012740;28;20438;-74
2021/03/16 13:55:57;;;;;;;9.13;1.80;;;;;;;;;;5011494;28;20417;-73
2021/03/16 13:58:23;;;;;;;5.88;1.60;;;;;;;;;;5029296;28;20423;-72
2021/03/16 14:00:49;;;;;;;9.82;1.95;;;;;;;;;;5030543;28;20383;-71
2021/03/16 14:03:15;;;;;;;8.00;1.88;;;;;;;;;;5030516;28;20411;-71
2021/03/16 14:05:41;;;;;;;8.13;1.90;;;;;;;;;;5027851;28;20399;-73
2021/03/16 14:08:07;;;;;;;7.32;1.88;;;;;;;;;;5024349;28;20960;-73
2021/03/16 14:10:34;;;;;;;7.25;1.70;;;;;;;;;;5027695;28;20398;-74
2021/03/16 14:13:02;;;;;;;8.27;2.00;;;;;;;;;;5030115;28;20387;-72
2021/03/16 14:15:28;;;;;;;8.80;2.22;;;;;;;;;;5026742;28;20482;-72
2021/03/16 14:17:54;;;;;;;7.45;1.80;;;;;;;;;;5029030;28;20537;-72
2021/03/16 14:20:20;;;;;;;5.28;1.88;;;;;;;;;;5029675;28;20470;-72
2021/03/16 14:22:48;;;;;;;10.52;2.00;;;;;;;;;;5028570;28;20429;-73
2021/03/16 14:25:14;;;;;;;5.93;1.70;;;;;;;;;;5030278;28;20533;-72
2021/03/16 14:27:40;;;;;;;9.43;2.38;;;;;;;;;;5028221;28;21092;-72
2021/03/16 14:30:07;;;;;;;8.38;2.55;;;;;;;;;;5029639;28;20394;-72